createdAt,value
2018-02-06T07:06:17.885Z,75.40
2018-02-06T07:08:47.460Z,75.50
2018-02-06T07:11:19.528Z,75.30
2018-02-06T07:13:49.384Z,75.80
2018-02-06T07:16:19.886Z,75.50
2018-02-06T07:18:53.828Z,75.60
2018-02-06T07:21:23.604Z,75.70
2018-02-06T07:23:53.122Z,75.60
2018-02-06T07:26:28.829Z,76.00
2018-02-06T07:29:06.745Z,75.90
2018-02-06T07:31:36.841Z,75.70
2018-02-06T07:34:08.996Z,75.70
2018-02-06T07:36:38.831Z,75.50
2018-02-06T07:39:12.585Z,75.90
2018-02-06T07:41:42.192Z,75.80
2018-02-06T07:44:12.104Z,75.60
2018-02-06T07:46:43.721Z,75.50
2018-02-06T07:49:13.725Z,75.20
2018-02-06T07:51:45.770Z,75.20
2018-02-06T07:54:17.469Z,75.10
2018-02-06T07:56:50.844Z,75.10
2018-02-06T07:59:20.359Z,74.70
2018-02-06T08:01:50.525Z,74.60
2018-02-06T08:04:21.554Z,73.90
2018-02-06T08:06:51.411Z,73.60
2018-02-06T08:09:23.610Z,74.00
2018-02-06T08:11:55.152Z,73.80
2018-02-06T08:14:25.003Z,73.60
2018-02-06T08:16:58.293Z,73.60
2018-02-06T08:19:29.898Z,73.20
2018-02-06T08:22:00.973Z,73.40
2018-02-06T08:24:31.873Z,73.10
2018-02-06T08:27:02.836Z,72.80
2018-02-06T08:29:44.585Z,72.90
2018-02-06T08:32:17.077Z,72.80
2018-02-06T08:34:48.602Z,72.50
2018-02-06T08:37:18.464Z,72.40
2018-02-06T08:39:51.241Z,73.00
2018-02-06T08:42:20.929Z,72.90
2018-02-06T08:45:03.312Z,72.20
2018-02-06T08:47:33.691Z,72.50
2018-02-06T08:50:03.547Z,72.30
2018-02-06T08:52:34.004Z,71.80
2018-02-06T08:55:07.731Z,71.80
2018-02-06T08:57:37.578Z,72.50
2018-02-06T09:00:07.433Z,72.20
2018-02-06T09:02:40.193Z,71.40
2018-02-06T09:05:14.608Z,71.90
2018-02-06T09:07:44.218Z,72.00
2018-02-06T09:10:18.055Z,71.70
2018-02-06T09:12:49.130Z,71.70
2018-02-06T09:15:31.393Z,71.00
2018-02-06T09:18:01.403Z,70.60
2018-02-06T09:20:34.886Z,70.50
2018-02-06T09:23:05.050Z,70.50
2018-02-06T09:25:36.279Z,71.10
2018-02-06T09:28:09.847Z,70.40
2018-02-06T09:30:40.137Z,70.30
2018-02-06T09:33:12.036Z,69.10
2018-02-06T09:35:43.185Z,69.70
2018-02-06T09:38:14.893Z,68.10
2018-02-06T09:40:45.344Z,67.00
2018-02-06T09:43:30.275Z,68.20
2018-02-06T09:46:00.759Z,68.30
2018-02-06T09:51:40.910Z,67.10
2018-02-06T09:54:25.829Z,66.30
2018-02-06T09:57:08.107Z,67.50
2018-02-06T09:59:41.192Z,67.60
2018-02-06T10:02:17.278Z,66.80
2018-02-06T10:05:16.731Z,67.00
2018-02-06T10:07:47.282Z,67.10
2018-02-06T10:10:24.758Z,67.90
2018-02-06T10:12:57.650Z,67.70
2018-02-06T10:15:28.689Z,67.90
2018-02-06T10:18:05.836Z,68.50
2018-02-06T10:20:36.511Z,68.50
2018-02-06T10:23:07.599Z,68.50
2018-02-06T10:25:37.781Z,68.90
2018-02-06T10:28:09.812Z,68.90
2018-02-06T10:30:43.382Z,69.20
2018-02-06T10:33:16.285Z,69.80
2018-02-06T10:35:51.384Z,70.50
2018-02-06T10:38:25.986Z,69.40
2018-02-06T10:41:03.256Z,68.40
2018-02-06T10:43:40.932Z,69.00
2018-02-06T10:46:12.062Z,69.00
2018-02-06T10:48:43.068Z,69.50
2018-02-06T10:51:26.820Z,69.70
2018-02-06T10:53:57.925Z,70.00
2018-02-06T10:56:27.995Z,70.60
2018-02-06T10:59:12.666Z,70.30
2018-02-06T11:01:44.665Z,70.80
2018-02-06T11:04:28.813Z,70.80
2018-02-06T11:07:00.637Z,70.90
2018-02-06T11:09:30.661Z,70.70
2018-02-06T11:12:05.088Z,70.80
2018-02-06T11:14:50.911Z,70.30
2018-02-06T11:17:35.367Z,70.10
2018-02-06T11:20:09.382Z,70.90
2018-02-06T11:22:47.872Z,71.60
2018-02-06T11:25:23.165Z,71.60
2018-02-06T11:28:00.027Z,71.70
2018-02-06T11:30:37.935Z,72.30
2018-02-06T11:33:27.428Z,71.70
2018-02-06T11:44:54.940Z,70.60
2018-02-06T11:47:28.669Z,70.00
2018-02-06T11:50:05.122Z,70.10
2018-02-06T11:52:49.783Z,69.90
2018-02-06T11:55:35.116Z,70.00
2018-02-06T11:58:06.152Z,70.30
2018-02-06T12:00:49.344Z,70.30
2018-02-06T12:03:37.031Z,71.10
2018-02-06T12:06:33.558Z,70.40
2018-02-06T12:09:24.777Z,69.50
2018-02-06T12:12:02.538Z,70.00
2018-02-06T12:14:40.158Z,70.10
2018-02-06T12:17:25.714Z,70.30
2018-02-06T12:20:08.614Z,70.30
2018-02-06T12:22:41.726Z,69.70
2018-02-06T12:25:14.855Z,69.60
2018-02-06T12:27:46.593Z,69.10
2018-02-06T12:30:29.325Z,69.10
2018-02-06T12:36:09.598Z,69.70
2018-02-06T12:39:10.556Z,69.70
2018-02-06T12:50:40.527Z,70.20
2018-02-06T12:53:24.721Z,70.10
2018-02-06T13:02:25.480Z,70.80
2018-02-06T13:05:14.522Z,71.20
2018-02-06T13:07:49.475Z,72.60
2018-02-06T13:10:22.818Z,72.60
2018-02-06T13:12:52.935Z,72.40
2018-02-06T13:15:24.648Z,73.60
2018-02-06T13:17:54.584Z,75.10
2018-02-06T13:20:26.783Z,75.60
2018-02-06T13:22:57.568Z,76.70
2018-02-06T13:25:38.480Z,76.40
2018-02-06T13:28:25.552Z,77.00
2018-02-06T13:31:00.059Z,77.20
2018-02-06T13:33:34.104Z,77.70
2018-02-06T13:36:14.280Z,77.60
2018-02-06T13:41:54.930Z,78.70
2018-02-06T13:44:32.434Z,80.80
2018-02-06T13:47:17.266Z,81.20
2018-02-06T13:49:52.922Z,81.10
2018-02-06T13:52:24.650Z,80.90
2018-02-06T13:55:00.553Z,81.60
2018-02-06T13:57:36.120Z,81.60
2018-02-06T14:00:45.909Z,81.90
2018-02-06T14:03:35.307Z,81.60
2018-02-06T14:11:33.052Z,82.40
2018-02-06T14:14:05.916Z,82.50
2018-02-06T14:16:42.809Z,83.10
2018-02-06T14:19:22.851Z,83.40
2018-02-06T14:27:50.217Z,82.80
2018-02-06T14:30:33.632Z,83.70
2018-02-06T14:33:05.124Z,84.90
2018-02-06T14:35:37.897Z,85.70
2018-02-06T14:38:13.949Z,85.60
2018-02-06T14:40:48.275Z,85.70
2018-02-06T14:43:22.090Z,86.40
2018-02-06T14:45:51.973Z,86.90
2018-02-06T14:48:21.631Z,88.40
2018-02-06T14:57:14.679Z,90.00
2018-02-06T15:02:29.707Z,90.80
2018-02-06T15:04:59.451Z,91.20
2018-02-06T15:07:29.289Z,90.90
2018-02-06T15:10:07.960Z,91.30
2018-02-06T15:12:54.563Z,91.60
2018-02-06T15:15:29.291Z,91.90
2018-02-06T15:18:04.987Z,91.80
2018-02-06T15:20:35.257Z,92.10
2018-02-06T15:23:04.784Z,92.30
2018-02-06T15:25:36.994Z,92.20
2018-02-06T15:28:11.744Z,93.70
2018-02-06T15:30:46.290Z,93.70
2018-02-06T15:33:18.932Z,93.80
2018-02-06T15:35:52.373Z,93.20
2018-02-06T15:38:22.439Z,93.20
2018-02-06T15:40:55.499Z,93.40
2018-02-06T15:43:30.514Z,93.40
2018-02-06T15:46:01.030Z,93.40
2018-02-06T15:48:33.879Z,93.40
2018-02-06T15:51:07.638Z,93.70
2018-02-06T15:53:39.007Z,93.40
2018-02-06T15:56:10.097Z,93.40
2018-02-06T15:58:40.532Z,93.00
2018-02-06T16:01:12.898Z,93.40
2018-02-06T16:03:42.866Z,93.60
2018-02-06T16:06:27.178Z,93.60
2018-02-06T16:08:57.874Z,93.70
2018-02-06T16:21:13.980Z,93.00
2018-02-06T16:24:10.855Z,93.10
2018-02-06T16:29:50.434Z,93.70
2018-02-06T16:32:21.196Z,93.70
2018-02-06T16:34:54.747Z,93.80
2018-02-06T16:37:25.379Z,93.90
2018-02-06T16:40:01.791Z,94.00
2018-02-06T16:42:42.880Z,94.10
2018-02-06T16:45:26.692Z,93.90
2018-02-06T16:48:04.044Z,93.60
2018-02-06T16:50:41.774Z,93.70
2018-02-06T16:53:23.723Z,93.60
2018-02-06T16:56:09.112Z,93.70
2018-02-06T16:58:40.617Z,93.70
2018-02-06T17:01:14.430Z,93.80
2018-02-06T17:03:49.257Z,93.60
2018-02-06T17:06:26.826Z,93.50
2018-02-06T17:09:00.857Z,93.60
2018-02-06T17:11:33.003Z,93.70
2018-02-06T17:14:05.672Z,93.30
2018-02-06T17:16:49.293Z,93.10
2018-02-06T17:19:38.163Z,93.30
2018-02-06T17:22:21.119Z,93.00
2018-02-06T17:25:12.935Z,92.70
2018-02-06T17:27:46.511Z,92.90
2018-02-06T17:36:27.538Z,92.80
2018-02-06T17:39:13.718Z,92.80
2018-02-06T17:41:52.311Z,92.80
2018-02-06T17:44:30.238Z,92.80
2018-02-06T17:47:08.016Z,92.80
2018-02-06T17:49:53.554Z,92.90
2018-02-06T17:52:52.105Z,92.90
2018-02-06T17:55:27.305Z,93.20
2018-02-06T17:58:10.815Z,92.50
2018-02-06T18:00:48.687Z,92.60
2018-02-06T18:03:19.368Z,92.50
2018-02-06T18:05:51.401Z,92.80
2018-02-06T18:08:25.709Z,92.20
2018-02-06T18:11:00.895Z,92.70
2018-02-06T18:19:56.579Z,92.50
2018-02-06T18:36:02.080Z,92.90
2018-02-06T18:38:59.546Z,92.90
2018-02-06T18:41:33.726Z,92.30
2018-02-06T18:46:52.627Z,92.80
2018-02-06T18:49:26.005Z,92.90
2018-02-06T18:55:06.013Z,92.90
2018-02-06T18:57:38.279Z,92.90
2018-02-06T19:00:34.080Z,93.10
2018-02-06T19:05:49.354Z,93.20
2018-02-06T19:11:47.918Z,92.90
2018-02-06T19:14:18.205Z,92.80
2018-02-06T19:17:30.960Z,92.70
2018-02-06T19:20:32.002Z,92.90
2018-02-06T19:23:22.340Z,92.40
2018-02-06T19:25:53.493Z,92.90
2018-02-06T19:28:25.300Z,93.00
2018-02-06T19:31:00.498Z,92.80
2018-02-06T19:33:41.719Z,92.70
2018-02-06T19:36:13.432Z,92.80
2018-02-06T19:38:56.629Z,92.60
2018-02-06T19:41:55.211Z,92.20
2018-02-06T19:47:47.187Z,92.40
2018-02-06T19:53:46.652Z,92.00
2018-02-06T19:56:16.421Z,92.10
2018-02-06T19:58:48.600Z,92.40
2018-02-06T20:01:18.983Z,92.30
2018-02-06T20:03:49.068Z,92.10
2018-02-06T20:06:20.707Z,92.10
2018-02-06T20:08:51.237Z,92.10
2018-02-06T20:11:25.256Z,92.00
2018-02-06T20:14:05.619Z,92.00
2018-02-06T20:16:51.091Z,92.20
2018-02-06T20:19:27.045Z,92.30
2018-02-06T20:22:26.838Z,92.20
2018-02-06T20:25:09.991Z,92.10
2018-02-06T20:27:55.169Z,92.30
2018-02-06T20:30:45.259Z,92.20
2018-02-06T20:33:16.012Z,92.40
2018-02-06T20:36:19.613Z,92.30
2018-02-06T20:38:54.393Z,92.50
2018-02-06T20:41:24.946Z,92.40
2018-02-06T20:43:57.836Z,92.40
2018-02-06T20:49:28.013Z,91.80
2018-02-06T20:51:58.223Z,91.80
2018-02-06T20:54:43.687Z,92.10
2018-02-06T20:57:19.566Z,92.00
2018-02-06T20:59:52.315Z,91.90
2018-02-06T21:05:25.440Z,93.00
2018-02-06T21:07:58.892Z,93.50
2018-02-06T21:10:28.867Z,94.00
2018-02-06T21:13:00.385Z,94.30
2018-02-06T21:15:43.996Z,93.60
2018-02-06T21:20:58.827Z,92.90
2018-02-06T21:23:29.403Z,93.10
2018-02-06T21:26:00.236Z,92.70
2018-02-06T21:28:30.016Z,92.80
2018-02-06T21:31:02.925Z,93.30
2018-02-06T21:33:38.852Z,93.50
2018-02-06T21:36:19.233Z,93.90
2018-02-06T21:44:39.096Z,93.60
2018-02-06T21:47:09.391Z,93.50
2018-02-06T21:49:39.567Z,93.70
2018-02-06T21:52:09.520Z,94.00
2018-02-06T21:54:39.888Z,94.10
2018-02-06T21:57:18.541Z,94.00
2018-02-06T21:59:57.080Z,93.90
2018-02-06T22:02:30.535Z,94.30
2018-02-06T22:05:13.424Z,94.70
2018-02-06T22:07:44.220Z,94.30
2018-02-06T22:10:19.323Z,94.20
2018-02-06T22:12:50.462Z,94.20
2018-02-06T22:15:21.226Z,93.80
2018-02-06T22:17:54.747Z,94.30
2018-02-06T22:20:42.040Z,94.70
2018-02-06T22:23:15.864Z,94.60
2018-02-06T22:29:28.107Z,93.90
2018-02-06T22:32:05.173Z,94.10
2018-02-06T22:34:58.676Z,94.10
2018-02-06T22:37:39.436Z,93.80
2018-02-06T22:40:10.216Z,94.20
2018-02-06T22:43:03.402Z,94.00
2018-02-06T22:45:33.200Z,94.00
2018-02-06T22:48:04.393Z,94.10
2018-02-06T22:50:34.859Z,94.10
2018-02-06T22:53:05.730Z,93.70
2018-02-06T22:55:38.119Z,93.80
2018-02-06T22:58:08.057Z,93.80
2018-02-06T23:00:38.017Z,93.50
2018-02-06T23:03:09.079Z,94.00
2018-02-06T23:05:40.905Z,94.20
2018-02-06T23:08:11.784Z,94.00
2018-02-06T23:10:42.059Z,94.30
2018-02-06T23:13:11.921Z,94.70
2018-02-06T23:15:42.831Z,94.70
2018-02-06T23:18:15.503Z,94.30
2018-02-06T23:20:53.900Z,94.50
2018-02-06T23:23:40.440Z,94.50
2018-02-06T23:26:11.453Z,94.40
2018-02-06T23:28:41.987Z,94.20
2018-02-06T23:31:11.613Z,94.30
2018-02-06T23:33:42.167Z,94.60
2018-02-06T23:36:18.380Z,94.60
2018-02-06T23:38:49.255Z,94.60
2018-02-06T23:41:22.023Z,94.40
2018-02-06T23:44:02.401Z,94.60
2018-02-06T23:46:44.595Z,94.70
2018-02-06T23:49:18.249Z,94.70
2018-02-06T23:51:53.938Z,94.70
2018-02-06T23:54:28.759Z,94.50
2018-02-06T23:57:07.812Z,94.40
2018-02-06T23:59:43.432Z,94.40
